sensor_id;sensor_type;location;lat;lon;timestamp;pressure;altitude;pressure_sealevel;temperature
74321;BMP280;62738;45.772;4.804;2022-11-06T00:01:26;100094.66;;;7.25
74321;BMP280;62738;45.772;4.804;2022-11-06T00:03:53;100092.59;;;7.12
74321;BMP280;62738;45.772;4.804;2022-11-06T00:06:20;100086.88;;;7.10
74321;BMP280;62738;45.772;4.804;2022-11-06T00:09:08;100085.03;;;7.31
74321;BMP280;62738;45.772;4.804;2022-11-06T00:11:34;100075.09;;;7.75
74321;BMP280;62738;45.772;4.804;2022-11-06T00:14:02;100068.19;;;8.16
74321;BMP280;62738;45.772;4.804;2022-11-06T00:16:29;100072.03;;;8.00
74321;BMP280;62738;45.772;4.804;2022-11-06T00:18:55;100059.91;;;8.16
74321;BMP280;62738;45.772;4.804;2022-11-06T00:21:26;100064.72;;;8.02
74321;BMP280;62738;45.772;4.804;2022-11-06T00:23:54;100062.16;;;8.38
74321;BMP280;62738;45.772;4.804;2022-11-06T00:26:23;100061.72;;;8.34
74321;BMP280;62738;45.772;4.804;2022-11-06T00:28:50;100057.75;;;8.43
74321;BMP280;62738;45.772;4.804;2022-11-06T00:31:29;100052.75;;;8.20
74321;BMP280;62738;45.772;4.804;2022-11-06T00:33:58;100043.94;;;8.22
74321;BMP280;62738;45.772;4.804;2022-11-06T00:36:26;100047.59;;;8.04
74321;BMP280;62738;45.772;4.804;2022-11-06T00:38:54;100049.72;;;8.31
74321;BMP280;62738;45.772;4.804;2022-11-06T00:41:21;100047.59;;;8.17
74321;BMP280;62738;45.772;4.804;2022-11-06T00:43:59;100032.69;;;8.41
74321;BMP280;62738;45.772;4.804;2022-11-06T00:46:26;100045.66;;;8.12
74321;BMP280;62738;45.772;4.804;2022-11-06T00:48:54;100041.69;;;8.20
74321;BMP280;62738;45.772;4.804;2022-11-06T00:51:26;100041.56;;;8.05
74321;BMP280;62738;45.772;4.804;2022-11-06T00:54:01;100027.75;;;8.26
74321;BMP280;62738;45.772;4.804;2022-11-06T00:56:28;100028.97;;;8.80
74321;BMP280;62738;45.772;4.804;2022-11-06T00:58:57;100032.78;;;8.56
74321;BMP280;62738;45.772;4.804;2022-11-06T01:01:30;100022.16;;;8.88
74321;BMP280;62738;45.772;4.804;2022-11-06T01:04:05;100022.81;;;8.74
74321;BMP280;62738;45.772;4.804;2022-11-06T01:06:38;100027.03;;;8.46
74321;BMP280;62738;45.772;4.804;2022-11-06T01:09:06;100028.75;;;8.57
74321;BMP280;62738;45.772;4.804;2022-11-06T01:11:36;100025.88;;;8.21
74321;BMP280;62738;45.772;4.804;2022-11-06T01:14:24;100019.56;;;8.00
74321;BMP280;62738;45.772;4.804;2022-11-06T01:16:51;100019.16;;;8.50
74321;BMP280;62738;45.772;4.804;2022-11-06T01:19:19;100015.09;;;8.30
74321;BMP280;62738;45.772;4.804;2022-11-06T01:21:48;99995.69;;;8.72
74321;BMP280;62738;45.772;4.804;2022-11-06T01:24:21;100004.22;;;8.12
74321;BMP280;62738;45.772;4.804;2022-11-06T01:26:48;99996.03;;;7.85
74321;BMP280;62738;45.772;4.804;2022-11-06T01:29:35;99988.41;;;7.05
74321;BMP280;62738;45.772;4.804;2022-11-06T01:32:02;99999.53;;;7.12
74321;BMP280;62738;45.772;4.804;2022-11-06T01:34:29;99992.13;;;6.81
74321;BMP280;62738;45.772;4.804;2022-11-06T01:36:55;99998.69;;;6.78
74321;BMP280;62738;45.772;4.804;2022-11-06T01:39:22;99987.34;;;6.68
74321;BMP280;62738;45.772;4.804;2022-11-06T01:41:50;99988.00;;;7.27
74321;BMP280;62738;45.772;4.804;2022-11-06T01:47:37;99964.81;;;7.43
74321;BMP280;62738;45.772;4.804;2022-11-06T01:50:07;99963.19;;;7.61
74321;BMP280;62738;45.772;4.804;2022-11-06T01:52:34;99953.81;;;7.77
74321;BMP280;62738;45.772;4.804;2022-11-06T01:55:18;99955.47;;;7.80
74321;BMP280;62738;45.772;4.804;2022-11-06T01:57:46;99957.88;;;7.63
74321;BMP280;62738;45.772;4.804;2022-11-06T02:00:14;99966.72;;;7.82
74321;BMP280;62738;45.772;4.804;2022-11-06T02:02:40;99960.06;;;6.78
74321;BMP280;62738;45.772;4.804;2022-11-06T02:05:08;99970.00;;;6.10
74321;BMP280;62738;45.772;4.804;2022-11-06T02:07:34;99975.75;;;5.74
74321;BMP280;62738;45.772;4.804;2022-11-06T02:10:02;99975.38;;;6.02
74321;BMP280;62738;45.772;4.804;2022-11-06T02:20:52;99956.75;;;6.53
74321;BMP280;62738;45.772;4.804;2022-11-06T02:23:39;99965.09;;;6.48
74321;BMP280;62738;45.772;4.804;2022-11-06T02:29:19;99961.56;;;6.66
74321;BMP280;62738;45.772;4.804;2022-11-06T02:31:48;99946.19;;;6.70
74321;BMP280;62738;45.772;4.804;2022-11-06T02:34:18;99937.28;;;6.91
74321;BMP280;62738;45.772;4.804;2022-11-06T02:36:54;99957.75;;;6.24
74321;BMP280;62738;45.772;4.804;2022-11-06T02:39:23;99963.75;;;5.90
74321;BMP280;62738;45.772;4.804;2022-11-06T02:41:52;99970.97;;;5.75
74321;BMP280;62738;45.772;4.804;2022-11-06T02:44:24;99969.47;;;5.92
74321;BMP280;62738;45.772;4.804;2022-11-06T02:46:55;99967.75;;;6.08
74321;BMP280;62738;45.772;4.804;2022-11-06T02:49:50;99956.63;;;6.46
74321;BMP280;62738;45.772;4.804;2022-11-06T02:52:20;99957.84;;;7.16
74321;BMP280;62738;45.772;4.804;2022-11-06T02:54:54;99952.66;;;7.12
74321;BMP280;62738;45.772;4.804;2022-11-06T02:57:23;99959.31;;;7.43
74321;BMP280;62738;45.772;4.804;2022-11-06T02:59:53;99957.88;;;7.63
74321;BMP280;62738;45.772;4.804;2022-11-06T03:02:28;99962.69;;;7.36
74321;BMP280;62738;45.772;4.804;2022-11-06T03:05:07;99958.97;;;7.34
74321;BMP280;62738;45.772;4.804;2022-11-06T03:07:51;99962.25;;;7.45
74321;BMP280;62738;45.772;4.804;2022-11-06T03:10:19;99960.97;;;7.46
74321;BMP280;62738;45.772;4.804;2022-11-06T03:12:56;99965.97;;;7.35
74321;BMP280;62738;45.772;4.804;2022-11-06T03:15:38;99965.34;;;7.42
74321;BMP280;62738;45.772;4.804;2022-11-06T03:18:18;99952.56;;;7.65
74321;BMP280;62738;45.772;4.804;2022-11-06T03:20:57;99950.72;;;7.21
74321;BMP280;62738;45.772;4.804;2022-11-06T03:23:44;99946.97;;;7.78
74321;BMP280;62738;45.772;4.804;2022-11-06T03:26:17;99947.13;;;7.26
74321;BMP280;62738;45.772;4.804;2022-11-06T03:28:53;99935.81;;;7.50
74321;BMP280;62738;45.772;4.804;2022-11-06T03:31:35;99921.81;;;7.35
74321;BMP280;62738;45.772;4.804;2022-11-06T03:34:09;99915.50;;;7.27
74321;BMP280;62738;45.772;4.804;2022-11-06T03:36:53;99897.63;;;7.41
74321;BMP280;62738;45.772;4.804;2022-11-06T03:39:31;99882.31;;;7.53
74321;BMP280;62738;45.772;4.804;2022-11-06T03:42:17;99869.34;;;7.48
74321;BMP280;62738;45.772;4.804;2022-11-06T03:44:48;99866.44;;;7.87
74321;BMP280;62738;45.772;4.804;2022-11-06T03:47:21;99867.16;;;8.09
74321;BMP280;62738;45.772;4.804;2022-11-06T03:49:53;99870.31;;;7.71
74321;BMP280;62738;45.772;4.804;2022-11-06T03:52:50;99863.38;;;7.99
74321;BMP280;62738;45.772;4.804;2022-11-06T03:55:24;99862.25;;;7.73
74321;BMP280;62738;45.772;4.804;2022-11-06T03:58:00;99867.59;;;8.20
74321;BMP280;62738;45.772;4.804;2022-11-06T04:00:28;99871.88;;;7.80
74321;BMP280;62738;45.772;4.804;2022-11-06T04:02:58;99871.72;;;7.65
74321;BMP280;62738;45.772;4.804;2022-11-06T04:09:02;99859.09;;;6.88
74321;BMP280;62738;45.772;4.804;2022-11-06T04:11:48;99840.13;;;6.58
74321;BMP280;62738;45.772;4.804;2022-11-06T04:14:36;99831.34;;;6.47
74321;BMP280;62738;45.772;4.804;2022-11-06T04:17:06;99830.94;;;6.43
74321;BMP280;62738;45.772;4.804;2022-11-06T04:19:35;99816.50;;;6.10
74321;BMP280;62738;45.772;4.804;2022-11-06T04:22:21;99821.81;;;5.76
74321;BMP280;62738;45.772;4.804;2022-11-06T04:25:24;99824.69;;;5.84
74321;BMP280;62738;45.772;4.804;2022-11-06T04:33:40;99835.81;;;5.78
74321;BMP280;62738;45.772;4.804;2022-11-06T04:36:16;99841.34;;;5.91
74321;BMP280;62738;45.772;4.804;2022-11-06T04:42:15;99844.06;;;6.36
74321;BMP280;62738;45.772;4.804;2022-11-06T04:44:39;99845.13;;;5.88
74321;BMP280;62738;45.772;4.804;2022-11-06T04:47:08;99841.81;;;5.45
74321;BMP280;62738;45.772;4.804;2022-11-06T04:49:38;99841.22;;;5.14
74321;BMP280;62738;45.772;4.804;2022-11-06T04:52:09;99837.13;;;5.02
74321;BMP280;62738;45.772;4.804;2022-11-06T04:54:36;99835.50;;;5.31
74321;BMP280;62738;45.772;4.804;2022-11-06T04:57:03;99828.59;;;5.06
74321;BMP280;62738;45.772;4.804;2022-11-06T04:59:35;99817.28;;;5.79
74321;BMP280;62738;45.772;4.804;2022-11-06T05:02:03;99818.72;;;5.66
74321;BMP280;62738;45.772;4.804;2022-11-06T05:04:31;99814.34;;;6.03
74321;BMP280;62738;45.772;4.804;2022-11-06T05:06:58;99811.06;;;6.04
74321;BMP280;62738;45.772;4.804;2022-11-06T05:09:24;99819.56;;;6.46
74321;BMP280;62738;45.772;4.804;2022-11-06T05:11:51;99826.25;;;6.77
74321;BMP280;62738;45.772;4.804;2022-11-06T05:14:17;99823.97;;;7.02
74321;BMP280;62738;45.772;4.804;2022-11-06T05:16:44;99823.25;;;6.88
74321;BMP280;62738;45.772;4.804;2022-11-06T05:19:11;99824.38;;;7.06
74321;BMP280;62738;45.772;4.804;2022-11-06T05:21:37;99821.19;;;6.68
74321;BMP280;62738;45.772;4.804;2022-11-06T05:24:23;99814.28;;;7.08
74321;BMP280;62738;45.772;4.804;2022-11-06T05:26:49;99806.72;;;6.75
74321;BMP280;62738;45.772;4.804;2022-11-06T05:29:24;99805.59;;;7.04
74321;BMP280;62738;45.772;4.804;2022-11-06T05:31:50;99810.13;;;6.94
74321;BMP280;62738;45.772;4.804;2022-11-06T05:34:17;99808.41;;;7.25
74321;BMP280;62738;45.772;4.804;2022-11-06T05:36:44;99799.88;;;6.68
74321;BMP280;62738;45.772;4.804;2022-11-06T05:39:10;99798.75;;;6.85
74321;BMP280;62738;45.772;4.804;2022-11-06T05:41:37;99801.03;;;7.41
74321;BMP280;62738;45.772;4.804;2022-11-06T05:44:04;99804.06;;;7.30
74321;BMP280;62738;45.772;4.804;2022-11-06T05:46:30;99790.53;;;7.05
74321;BMP280;62738;45.772;4.804;2022-11-06T05:49:16;99787.00;;;7.39
74321;BMP280;62738;45.772;4.804;2022-11-06T05:51:43;99781.88;;;7.22
74321;BMP280;62738;45.772;4.804;2022-11-06T05:54:09;99783.34;;;6.68
74321;BMP280;62738;45.772;4.804;2022-11-06T05:56:36;99779.00;;;6.33
74321;BMP280;62738;45.772;4.804;2022-11-06T05:59:03;99765.00;;;6.31
74321;BMP280;62738;45.772;4.804;2022-11-06T06:01:29;99766.94;;;6.36
74321;BMP280;62738;45.772;4.804;2022-11-06T06:03:56;99754.50;;;6.43
74321;BMP280;62738;45.772;4.804;2022-11-06T06:06:23;99774.13;;;6.26
74321;BMP280;62738;45.772;4.804;2022-11-06T06:08:49;99764.59;;;6.27
74321;BMP280;62738;45.772;4.804;2022-11-06T06:11:16;99768.19;;;6.35
74321;BMP280;62738;45.772;4.804;2022-11-06T06:13:43;99757.72;;;6.08
74321;BMP280;62738;45.772;4.804;2022-11-06T06:16:09;99761.72;;;5.80
74321;BMP280;62738;45.772;4.804;2022-11-06T06:18:36;99756.09;;;5.73
74321;BMP280;62738;45.772;4.804;2022-11-06T06:21:02;99751.97;;;5.47
74321;BMP280;62738;45.772;4.804;2022-11-06T06:23:29;99745.06;;;5.73
74321;BMP280;62738;45.772;4.804;2022-11-06T06:25:56;99737.66;;;5.81
74321;BMP280;62738;45.772;4.804;2022-11-06T06:28:22;99741.25;;;5.89
74321;BMP280;62738;45.772;4.804;2022-11-06T06:30:49;99733.88;;;6.36
74321;BMP280;62738;45.772;4.804;2022-11-06T06:33:15;99725.34;;;6.48
74321;BMP280;62738;45.772;4.804;2022-11-06T06:35:42;99725.38;;;6.34
74321;BMP280;62738;45.772;4.804;2022-11-06T06:38:09;99730.78;;;6.27
74321;BMP280;62738;45.772;4.804;2022-11-06T06:40:36;99738.31;;;6.26
74321;BMP280;62738;45.772;4.804;2022-11-06T06:43:02;99722.19;;;5.78
74321;BMP280;62738;45.772;4.804;2022-11-06T06:45:29;99729.63;;;6.22
74321;BMP280;62738;45.772;4.804;2022-11-06T06:48:01;99726.03;;;6.14
74321;BMP280;62738;45.772;4.804;2022-11-06T06:50:27;99734.50;;;6.16
74321;BMP280;62738;45.772;4.804;2022-11-06T06:52:58;99741.28;;;6.15
74321;BMP280;62738;45.772;4.804;2022-11-06T06:55:25;99742.44;;;6.20
74321;BMP280;62738;45.772;4.804;2022-11-06T06:57:58;99738.53;;;6.28
74321;BMP280;62738;45.772;4.804;2022-11-06T07:00:26;99723.44;;;6.69
74321;BMP280;62738;45.772;4.804;2022-11-06T07:02:53;99718.88;;;6.58
74321;BMP280;62738;45.772;4.804;2022-11-06T07:05:20;99718.97;;;6.66
74321;BMP280;62738;45.772;4.804;2022-11-06T07:07:46;99713.56;;;6.47
74321;BMP280;62738;45.772;4.804;2022-11-06T07:10:13;99709.78;;;6.50
74321;BMP280;62738;45.772;4.804;2022-11-06T07:12:40;99707.78;;;6.11
74321;BMP280;62738;45.772;4.804;2022-11-06T07:15:07;99708.53;;;5.85
74321;BMP280;62738;45.772;4.804;2022-11-06T07:17:34;99713.13;;;6.09
74321;BMP280;62738;45.772;4.804;2022-11-06T07:20:00;99708.84;;;6.21
74321;BMP280;62738;45.772;4.804;2022-11-06T07:22:27;99703.34;;;6.34
74321;BMP280;62738;45.772;4.804;2022-11-06T07:25:02;99713.28;;;6.51
74321;BMP280;62738;45.772;4.804;2022-11-06T07:27:29;99710.91;;;6.68
74321;BMP280;62738;45.772;4.804;2022-11-06T07:29:56;99705.63;;;7.53
74321;BMP280;62738;45.772;4.804;2022-11-06T07:32:22;99704.78;;;7.16
74321;BMP280;62738;45.772;4.804;2022-11-06T07:34:49;99709.28;;;7.06
74321;BMP280;62738;45.772;4.804;2022-11-06T07:37:15;99717.69;;;7.01
74321;BMP280;62738;45.772;4.804;2022-11-06T07:39:42;99710.47;;;7.60
74321;BMP280;62738;45.772;4.804;2022-11-06T07:42:09;99712.16;;;7.91
74321;BMP280;62738;45.772;4.804;2022-11-06T07:44:35;99709.00;;;7.67
74321;BMP280;62738;45.772;4.804;2022-11-06T07:47:02;99705.53;;;7.66
74321;BMP280;62738;45.772;4.804;2022-11-06T07:49:28;99709.31;;;7.55
74321;BMP280;62738;45.772;4.804;2022-11-06T07:51:55;99704.97;;;7.68
74321;BMP280;62738;45.772;4.804;2022-11-06T07:54:22;99687.81;;;7.90
74321;BMP280;62738;45.772;4.804;2022-11-06T07:56:48;99677.72;;;7.92
74321;BMP280;62738;45.772;4.804;2022-11-06T07:59:15;99674.41;;;7.94
74321;BMP280;62738;45.772;4.804;2022-11-06T08:01:41;99667.13;;;8.70
74321;BMP280;62738;45.772;4.804;2022-11-06T08:04:10;99676.38;;;8.22
74321;BMP280;62738;45.772;4.804;2022-11-06T08:06:37;99674.34;;;8.22
74321;BMP280;62738;45.772;4.804;2022-11-06T08:09:05;99678.47;;;8.44
74321;BMP280;62738;45.772;4.804;2022-11-06T08:11:32;99686.75;;;8.44
74321;BMP280;62738;45.772;4.804;2022-11-06T08:13:59;99681.03;;;8.42
74321;BMP280;62738;45.772;4.804;2022-11-06T08:16:26;99680.91;;;8.63
74321;BMP280;62738;45.772;4.804;2022-11-06T08:18:53;99685.22;;;9.02
74321;BMP280;62738;45.772;4.804;2022-11-06T08:21:20;99682.97;;;8.93
74321;BMP280;62738;45.772;4.804;2022-11-06T08:23:47;99685.97;;;9.18
74321;BMP280;62738;45.772;4.804;2022-11-06T08:26:13;99692.75;;;9.70
74321;BMP280;62738;45.772;4.804;2022-11-06T08:28:40;99695.00;;;10.11
74321;BMP280;62738;45.772;4.804;2022-11-06T08:31:07;99684.91;;;9.99
74321;BMP280;62738;45.772;4.804;2022-11-06T08:33:36;99688.50;;;9.61
74321;BMP280;62738;45.772;4.804;2022-11-06T08:36:04;99684.06;;;9.66
74321;BMP280;62738;45.772;4.804;2022-11-06T08:38:31;99697.56;;;10.09
74321;BMP280;62738;45.772;4.804;2022-11-06T08:41:05;99684.94;;;9.91
74321;BMP280;62738;45.772;4.804;2022-11-06T08:43:32;99676.19;;;10.02
74321;BMP280;62738;45.772;4.804;2022-11-06T08:45:59;99686.38;;;9.92
74321;BMP280;62738;45.772;4.804;2022-11-06T08:48:26;99687.94;;;9.70
74321;BMP280;62738;45.772;4.804;2022-11-06T08:50:53;99697.13;;;10.36
74321;BMP280;62738;45.772;4.804;2022-11-06T08:53:19;99685.28;;;10.35
74321;BMP280;62738;45.772;4.804;2022-11-06T08:55:46;99694.06;;;10.16
74321;BMP280;62738;45.772;4.804;2022-11-06T08:58:12;99686.09;;;10.20
74321;BMP280;62738;45.772;4.804;2022-11-06T09:00:39;99687.28;;;10.42
74321;BMP280;62738;45.772;4.804;2022-11-06T09:03:10;99673.50;;;10.27
74321;BMP280;62738;45.772;4.804;2022-11-06T09:05:41;99666.91;;;10.47
74321;BMP280;62738;45.772;4.804;2022-11-06T09:08:10;99661.81;;;10.36
74321;BMP280;62738;45.772;4.804;2022-11-06T09:10:38;99652.31;;;10.72
74321;BMP280;62738;45.772;4.804;2022-11-06T09:13:05;99647.63;;;10.57
74321;BMP280;62738;45.772;4.804;2022-11-06T09:15:32;99635.19;;;10.65
74321;BMP280;62738;45.772;4.804;2022-11-06T09:17:58;99643.19;;;10.29
74321;BMP280;62738;45.772;4.804;2022-11-06T09:20:25;99640.59;;;10.31
74321;BMP280;62738;45.772;4.804;2022-11-06T09:22:52;99642.13;;;10.17
74321;BMP280;62738;45.772;4.804;2022-11-06T09:25:19;99649.63;;;10.32
74321;BMP280;62738;45.772;4.804;2022-11-06T09:27:48;99651.34;;;10.19
74321;BMP280;62738;45.772;4.804;2022-11-06T09:30:21;99642.81;;;10.82
74321;BMP280;62738;45.772;4.804;2022-11-06T09:32:58;99635.69;;;11.31
74321;BMP280;62738;45.772;4.804;2022-11-06T09:35:26;99635.06;;;11.23
74321;BMP280;62738;45.772;4.804;2022-11-06T09:37:53;99638.75;;;11.00
74321;BMP280;62738;45.772;4.804;2022-11-06T09:40:45;99629.03;;;10.92
74321;BMP280;62738;45.772;4.804;2022-11-06T09:43:21;99637.13;;;11.22
74321;BMP280;62738;45.772;4.804;2022-11-06T09:46:24;99639.13;;;11.39
74321;BMP280;62738;45.772;4.804;2022-11-06T09:51:35;99625.47;;;11.85
74321;BMP280;62738;45.772;4.804;2022-11-06T09:54:23;99627.59;;;11.77
74321;BMP280;62738;45.772;4.804;2022-11-06T09:56:56;99619.53;;;11.54
74321;BMP280;62738;45.772;4.804;2022-11-06T09:59:25;99621.81;;;11.65
74321;BMP280;62738;45.772;4.804;2022-11-06T10:01:54;99612.31;;;11.68
74321;BMP280;62738;45.772;4.804;2022-11-06T10:04:48;99604.25;;;11.63
74321;BMP280;62738;45.772;4.804;2022-11-06T10:07:27;99611.47;;;11.48
74321;BMP280;62738;45.772;4.804;2022-11-06T10:09:55;99612.41;;;11.61
74321;BMP280;62738;45.772;4.804;2022-11-06T10:15:52;99599.47;;;11.90
74321;BMP280;62738;45.772;4.804;2022-11-06T10:21:17;99588.75;;;12.13
74321;BMP280;62738;45.772;4.804;2022-11-06T10:26:19;99589.97;;;12.20
74321;BMP280;62738;45.772;4.804;2022-11-06T10:31:37;99580.69;;;12.44
74321;BMP280;62738;45.772;4.804;2022-11-06T10:34:13;99574.53;;;12.46
74321;BMP280;62738;45.772;4.804;2022-11-06T10:36:42;99565.78;;;12.49
74321;BMP280;62738;45.772;4.804;2022-11-06T10:39:21;99569.41;;;12.42
74321;BMP280;62738;45.772;4.804;2022-11-06T10:41:52;99566.19;;;12.46
74321;BMP280;62738;45.772;4.804;2022-11-06T10:44:22;99562.00;;;12.18
74321;BMP280;62738;45.772;4.804;2022-11-06T10:46:54;99567.16;;;11.95
74321;BMP280;62738;45.772;4.804;2022-11-06T10:49:33;99567.41;;;12.16
74321;BMP280;62738;45.772;4.804;2022-11-06T10:57:28;99564.88;;;12.47
74321;BMP280;62738;45.772;4.804;2022-11-06T10:59:58;99568.44;;;12.66
74321;BMP280;62738;45.772;4.804;2022-11-06T11:02:33;99569.88;;;12.48
74321;BMP280;62738;45.772;4.804;2022-11-06T11:05:01;99568.59;;;12.68
74321;BMP280;62738;45.772;4.804;2022-11-06T11:07:30;99557.34;;;12.76
74321;BMP280;62738;45.772;4.804;2022-11-06T11:09:57;99552.53;;;13.05
74321;BMP280;62738;45.772;4.804;2022-11-06T11:12:28;99556.19;;;13.08
74321;BMP280;62738;45.772;4.804;2022-11-06T11:15:09;99551.03;;;12.95
74321;BMP280;62738;45.772;4.804;2022-11-06T11:17:37;99544.91;;;13.06
74321;BMP280;62738;45.772;4.804;2022-11-06T11:20:33;99542.25;;;13.17
74321;BMP280;62738;45.772;4.804;2022-11-06T11:23:13;99534.75;;;13.20
74321;BMP280;62738;45.772;4.804;2022-11-06T11:25:43;99535.66;;;12.84
74321;BMP280;62738;45.772;4.804;2022-11-06T11:33:41;99534.63;;;12.89
74321;BMP280;62738;45.772;4.804;2022-11-06T11:36:13;99521.28;;;13.07
74321;BMP280;62738;45.772;4.804;2022-11-06T11:38:40;99522.16;;;13.00
74321;BMP280;62738;45.772;4.804;2022-11-06T11:41:23;99520.81;;;13.20
74321;BMP280;62738;45.772;4.804;2022-11-06T11:44:19;99509.53;;;13.37
74321;BMP280;62738;45.772;4.804;2022-11-06T11:46:51;99513.22;;;13.30
74321;BMP280;62738;45.772;4.804;2022-11-06T11:49:29;99507.94;;;13.15
74321;BMP280;62738;45.772;4.804;2022-11-06T11:52:10;99509.66;;;13.39
74321;BMP280;62738;45.772;4.804;2022-11-06T11:54:38;99503.50;;;13.50
74321;BMP280;62738;45.772;4.804;2022-11-06T11:57:07;99507.28;;;13.55
74321;BMP280;62738;45.772;4.804;2022-11-06T12:02:19;99497.50;;;13.44
74321;BMP280;62738;45.772;4.804;2022-11-06T12:04:53;99497.88;;;13.70
74321;BMP280;62738;45.772;4.804;2022-11-06T12:07:32;99494.28;;;13.79
74321;BMP280;62738;45.772;4.804;2022-11-06T12:10:01;99487.75;;;13.65
74321;BMP280;62738;45.772;4.804;2022-11-06T12:12:32;99480.75;;;13.85
74321;BMP280;62738;45.772;4.804;2022-11-06T12:15:15;99472.78;;;13.60
74321;BMP280;62738;45.772;4.804;2022-11-06T12:17:48;99458.53;;;13.66
74321;BMP280;62738;45.772;4.804;2022-11-06T12:20:20;99462.56;;;13.84
74321;BMP280;62738;45.772;4.804;2022-11-06T12:22:50;99453.19;;;13.89
74321;BMP280;62738;45.772;4.804;2022-11-06T12:25:33;99459.69;;;14.03
74321;BMP280;62738;45.772;4.804;2022-11-06T12:28:02;99450.50;;;13.91
74321;BMP280;62738;45.772;4.804;2022-11-06T12:30:31;99449.03;;;13.90
74321;BMP280;62738;45.772;4.804;2022-11-06T12:33:10;99446.38;;;14.01
74321;BMP280;62738;45.772;4.804;2022-11-06T12:35:47;99444.81;;;14.10
74321;BMP280;62738;45.772;4.804;2022-11-06T12:41:31;99434.91;;;14.40
74321;BMP280;62738;45.772;4.804;2022-11-06T12:43:59;99434.13;;;14.49
74321;BMP280;62738;45.772;4.804;2022-11-06T12:47:02;99438.16;;;14.58
74321;BMP280;62738;45.772;4.804;2022-11-06T13:01:04;99422.06;;;15.12
74321;BMP280;62738;45.772;4.804;2022-11-06T13:09:27;99420.28;;;15.52
74321;BMP280;62738;45.772;4.804;2022-11-06T13:17:30;99411.75;;;15.73
74321;BMP280;62738;45.772;4.804;2022-11-06T13:20:10;99411.75;;;15.61
74321;BMP280;62738;45.772;4.804;2022-11-06T13:28:29;99397.38;;;15.90
74321;BMP280;62738;45.772;4.804;2022-11-06T13:30:58;99386.44;;;15.71
74321;BMP280;62738;45.772;4.804;2022-11-06T13:36:04;99394.09;;;15.59
74321;BMP280;62738;45.772;4.804;2022-11-06T13:38:36;99389.03;;;15.55
74321;BMP280;62738;45.772;4.804;2022-11-06T13:41:10;99385.50;;;15.55
74321;BMP280;62738;45.772;4.804;2022-11-06T13:43:42;99391.09;;;15.55
74321;BMP280;62738;45.772;4.804;2022-11-06T13:51:44;99386.94;;;15.67
74321;BMP280;62738;45.772;4.804;2022-11-06T13:57:00;99393.28;;;15.68
74321;BMP280;62738;45.772;4.804;2022-11-06T14:00:05;99392.19;;;15.73
74321;BMP280;62738;45.772;4.804;2022-11-06T14:07:50;99380.75;;;15.57
74321;BMP280;62738;45.772;4.804;2022-11-06T14:10:20;99382.63;;;15.53
74321;BMP280;62738;45.772;4.804;2022-11-06T14:12:48;99379.16;;;15.66
74321;BMP280;62738;45.772;4.804;2022-11-06T14:15:27;99392.78;;;15.60
74321;BMP280;62738;45.772;4.804;2022-11-06T14:17:58;99405.75;;;15.90
74321;BMP280;62738;45.772;4.804;2022-11-06T14:20:34;99399.31;;;15.88
74321;BMP280;62738;45.772;4.804;2022-11-06T14:26:10;99398.38;;;15.83
74321;BMP280;62738;45.772;4.804;2022-11-06T14:28:40;99402.50;;;15.82
74321;BMP280;62738;45.772;4.804;2022-11-06T14:31:08;99407.31;;;16.05
74321;BMP280;62738;45.772;4.804;2022-11-06T14:38:51;99404.19;;;15.75
74321;BMP280;62738;45.772;4.804;2022-11-06T14:41:51;99401.03;;;15.69
74321;BMP280;62738;45.772;4.804;2022-11-06T14:44:28;99405.44;;;15.49
74321;BMP280;62738;45.772;4.804;2022-11-06T14:46:58;99414.28;;;15.81
74321;BMP280;62738;45.772;4.804;2022-11-06T14:49:33;99426.31;;;15.60
74321;BMP280;62738;45.772;4.804;2022-11-06T14:52:04;99413.94;;;15.63
74321;BMP280;62738;45.772;4.804;2022-11-06T14:54:32;99423.44;;;15.46
74321;BMP280;62738;45.772;4.804;2022-11-06T14:56:59;99424.19;;;15.47
74321;BMP280;62738;45.772;4.804;2022-11-06T15:04:48;99426.84;;;15.45
74321;BMP280;62738;45.772;4.804;2022-11-06T15:13:15;99454.91;;;15.23
74321;BMP280;62738;45.772;4.804;2022-11-06T15:15:57;99471.78;;;15.25
74321;BMP280;62738;45.772;4.804;2022-11-06T15:18:26;99457.06;;;15.13
74321;BMP280;62738;45.772;4.804;2022-11-06T15:20:59;99452.47;;;15.29
74321;BMP280;62738;45.772;4.804;2022-11-06T15:23:32;99445.88;;;15.13
74321;BMP280;62738;45.772;4.804;2022-11-06T15:26:24;99443.78;;;14.91
74321;BMP280;62738;45.772;4.804;2022-11-06T15:29:12;99461.47;;;14.83
74321;BMP280;62738;45.772;4.804;2022-11-06T15:31:46;99468.06;;;14.67
74321;BMP280;62738;45.772;4.804;2022-11-06T15:34:25;99459.00;;;14.78
74321;BMP280;62738;45.772;4.804;2022-11-06T15:37:12;99469.19;;;15.06
74321;BMP280;62738;45.772;4.804;2022-11-06T15:42:15;99468.78;;;15.00
74321;BMP280;62738;45.772;4.804;2022-11-06T15:44:44;99469.50;;;14.89
74321;BMP280;62738;45.772;4.804;2022-11-06T15:47:27;99469.78;;;15.05
74321;BMP280;62738;45.772;4.804;2022-11-06T15:50:15;99491.19;;;14.79
74321;BMP280;62738;45.772;4.804;2022-11-06T15:52:43;99471.72;;;14.69
74321;BMP280;62738;45.772;4.804;2022-11-06T15:55:31;99475.94;;;14.59
74321;BMP280;62738;45.772;4.804;2022-11-06T15:58:21;99476.63;;;14.80
74321;BMP280;62738;45.772;4.804;2022-11-06T16:00:55;99480.09;;;14.91
74321;BMP280;62738;45.772;4.804;2022-11-06T16:03:24;99487.94;;;14.82
74321;BMP280;62738;45.772;4.804;2022-11-06T16:05:53;99489.19;;;15.03
74321;BMP280;62738;45.772;4.804;2022-11-06T16:08:22;99492.53;;;14.78
74321;BMP280;62738;45.772;4.804;2022-11-06T16:10:50;99495.16;;;14.76
74321;BMP280;62738;45.772;4.804;2022-11-06T16:13:18;99483.53;;;14.79
74321;BMP280;62738;45.772;4.804;2022-11-06T16:15:59;99488.00;;;14.73
74321;BMP280;62738;45.772;4.804;2022-11-06T16:21:07;99495.13;;;14.64
74321;BMP280;62738;45.772;4.804;2022-11-06T16:23:42;99490.34;;;14.55
74321;BMP280;62738;45.772;4.804;2022-11-06T16:26:13;99485.72;;;14.81
74321;BMP280;62738;45.772;4.804;2022-11-06T16:28:45;99490.28;;;14.65
74321;BMP280;62738;45.772;4.804;2022-11-06T16:31:18;99488.53;;;14.38
74321;BMP280;62738;45.772;4.804;2022-11-06T16:34:03;99501.16;;;14.18
74321;BMP280;62738;45.772;4.804;2022-11-06T16:37:00;99509.13;;;14.76
74321;BMP280;62738;45.772;4.804;2022-11-06T16:39:40;99525.22;;;14.66
74321;BMP280;62738;45.772;4.804;2022-11-06T16:42:33;99535.06;;;14.45
74321;BMP280;62738;45.772;4.804;2022-11-06T16:47:33;99534.91;;;14.22
74321;BMP280;62738;45.772;4.804;2022-11-06T16:50:00;99540.22;;;14.18
74321;BMP280;62738;45.772;4.804;2022-11-06T16:52:38;99539.22;;;14.04